Hlavní strana
METAR-TAF:

METAR-TAF

Letiště :

Semej, Kazachstán

zeměpisná šířka: 50-21-05N, zeměpisná délka: 080-14-04E, výška: 232 m

Aktuální stav počasí

Zpráva byla vytvořena před 12 hodinami a 28 minutami, v 04:00 UTC
Východní vítr 6 kt
Teplota -7°C
Vlhkost vzduchu 73%
Tlak 1020 hPa
Viditelnost 10 km a více
Polojasno ve výšce 4300 ft

METAR: UASS 180400Z 10003MPS 9999 SCT043 M07/M11 Q1020 R26/410055 NOSIG RMK QFE747/0996

Čas: 22:28 (16:28 UTC)

Předpověď počasí

Zpráva byla vytvořena před 5 hodinami a 29 minutami, v 10:59 UTC
Předpověď platná od 18 v 12 UTC do 18 v 21 UTC
Jižní vítr 10 kt s nárazy do 19 kt
Viditelnost 10 km a více
Oblačno až skoro zataženo ve výšce 3000 ft
Oblačno až skoro zataženo ve výšce 10000 ft
Dočasný
od 18 v 12 UTC do 18 v 18 UTC
Jihozápadní vítr 16 kt
Viditelnost: 5000 m
Oblačno až skoro zataženo ve výšce 2000 ft, Cumulonimbus.
slabé sněhové přeháňky

TAF: UASS 181059Z 1812/1821 18005G10MPS 9999 BKN030 BKN100 TEMPO 1812/1818 23008MPS 5000 -SHSN BKN020CB

Stav a předpovědi počasí z více než 4 000 letišť (zprávy METAR a TAF).

Červené a žluté tečky na mapě představují dostupné meteorologické stanice.

Když kurzor umístíte na tečku, zobrazí se název stanice.

Pak kliknutím zobrazíte stav a předpověď počasí.

Chcete-li změnit mapu, kliknutím na zelené tlačítko se znaménkem +mapu přiblížíte, kliknutím na zelené tlačítko se znaménkem – mapu oddálíte a kliknutím na zelené šipky přejdete na sousední mapy.


METAR-TAF: